Time;durP1;ratioP1;P1;durP2;ratioP2;P2;SDS_P1;SDS_P2;PMS_P1;PMS_P2;Temp;Humidity;BMP_temperature;BMP_pressure;BME280_temperature;BME280_humidity;BME280_pressure;Samples;Min_cycle;Max_cycle;Signal;HPM_P1;HPM_P2
2022/05/29 00:02:05;;;;;;;2.37;1.30;;;;;;;13.24;56.92;96235.44;5049369;28;20592;-56
2022/05/29 00:04:34;;;;;;;3.83;1.50;;;;;;;13.20;56.92;96228.81;5050625;28;20226;-56
2022/05/29 00:07:01;;;;;;;2.63;1.40;;;;;;;13.17;57.83;96224.69;5055037;28;20211;-57
2022/05/29 00:09:33;;;;;;;1.30;1.20;;;;;;;13.06;57.33;96217.03;5055314;28;20241;-57
2022/05/29 00:12:01;;;;;;;2.47;1.40;;;;;;;13.08;57.95;96219.50;5055493;28;20517;-57
2022/05/29 00:14:29;;;;;;;3.17;1.83;;;;;;;13.13;55.52;96227.84;5070839;28;20207;-56
2022/05/29 00:16:57;;;;;;;3.13;1.20;;;;;;;13.13;57.63;96233.16;5055098;28;20565;-57
2022/05/29 00:19:27;;;;;;;3.87;1.40;;;;;;;13.11;55.28;96224.53;5054655;28;20264;-56
2022/05/29 00:21:57;;;;;;;1.87;1.30;;;;;;;13.07;56.18;96220.53;5055395;28;20218;-55
2022/05/29 00:24:24;;;;;;;4.43;1.60;;;;;;;13.10;55.86;96222.88;5055323;28;20222;-55
2022/05/29 00:26:53;;;;;;;4.77;1.83;;;;;;;13.07;55.49;96223.19;5055125;28;20210;-57
2022/05/29 00:29:20;;;;;;;3.30;1.27;;;;;;;13.11;57.40;96208.59;5054416;28;20234;-55
2022/05/29 00:31:47;;;;;;;2.43;1.63;;;;;;;13.15;55.56;96218.69;5053514;28;20230;-56
2022/05/29 00:34:14;;;;;;;3.00;1.30;;;;;;;13.13;54.66;96217.22;5041390;28;20225;-57
2022/05/29 00:36:42;;;;;;;3.60;1.37;;;;;;;13.08;55.87;96214.19;5055205;28;20207;-55
2022/05/29 00:39:11;;;;;;;2.77;1.57;;;;;;;12.97;56.60;96213.56;5041936;28;20225;-58
2022/05/29 00:41:39;;;;;;;2.73;1.50;;;;;;;12.97;56.56;96208.25;5054819;28;20211;-57
2022/05/29 00:44:13;;;;;;;3.43;1.70;;;;;;;12.95;56.63;96199.63;5054897;28;20207;-57
2022/05/29 00:46:41;;;;;;;1.57;1.37;;;;;;;12.90;55.83;96201.13;5055115;28;20199;-57
2022/05/29 00:49:08;;;;;;;2.53;1.50;;;;;;;12.92;55.82;96194.66;5045758;28;20231;-58
2022/05/29 00:51:37;;;;;;;2.23;1.70;;;;;;;12.93;55.67;96191.00;5056045;28;20203;-57
2022/05/29 00:54:08;;;;;;;3.43;1.47;;;;;;;12.84;56.16;96191.19;5061828;28;20226;-57
2022/05/29 00:56:36;;;;;;;6.50;1.60;;;;;;;12.78;57.44;96191.88;5059561;28;20234;-58
2022/05/29 00:59:03;;;;;;;2.63;1.63;;;;;;;12.77;58.27;96184.88;5058327;28;20234;-57
2022/05/29 01:01:32;;;;;;;2.27;1.77;;;;;;;12.69;58.11;96188.38;5053508;28;20209;-56
2022/05/29 01:03:58;;;;;;;5.30;1.50;;;;;;;12.61;59.04;96183.06;5051896;28;20203;-56
2022/05/29 01:06:27;;;;;;;1.73;1.50;;;;;;;12.62;57.73;96173.28;5053739;28;20210;-56
2022/05/29 01:08:55;;;;;;;4.90;2.20;;;;;;;12.61;57.01;96169.00;5053966;28;20231;-56
2022/05/29 01:11:30;;;;;;;2.03;1.60;;;;;;;12.53;58.86;96172.47;5053684;28;20207;-54
2022/05/29 01:14:03;;;;;;;2.73;1.63;;;;;;;12.42;58.31;96156.91;5053772;28;20917;-56
2022/05/29 01:16:47;;;;;;;2.40;1.50;;;;;;;12.37;57.93;96159.22;5054144;28;20229;-57
2022/05/29 01:19:24;;;;;;;2.23;1.40;;;;;;;12.29;58.79;96164.53;5053505;28;20209;-55
2022/05/29 01:22:01;;;;;;;2.67;1.50;;;;;;;12.29;60.20;96151.28;5053823;28;20538;-56
2022/05/29 01:24:55;;;;;;;2.70;1.40;;;;;;;12.18;61.75;96152.44;5053654;28;20225;-56
2022/05/29 01:27:46;;;;;;;2.80;1.70;;;;;;;12.14;57.50;96145.81;5048516;28;20233;-55
2022/05/29 01:30:17;;;;;;;1.77;1.47;;;;;;;12.06;60.92;96137.00;5048180;28;20239;-52
2022/05/29 01:32:51;;;;;;;3.03;1.33;;;;;;;12.06;58.99;96129.88;5064787;28;20227;-53
2022/05/29 01:35:24;;;;;;;2.83;1.63;;;;;;;11.95;62.00;96131.03;5050416;28;20206;-53
2022/05/29 01:37:53;;;;;;;2.80;1.50;;;;;;;11.88;62.56;96132.69;5050891;28;20202;-54
2022/05/29 01:40:27;;;;;;;2.93;2.00;;;;;;;11.85;63.24;96119.75;5052165;28;20207;-53
2022/05/29 01:42:57;;;;;;;3.10;1.83;;;;;;;11.76;63.73;96110.13;5054031;28;20248;-55
2022/05/29 01:45:31;;;;;;;3.07;1.70;;;;;;;11.62;64.20;96108.09;5072575;28;20203;-55
2022/05/29 01:48:03;;;;;;;3.43;1.60;;;;;;;11.56;64.14;96107.91;5076504;28;20206;-56
2022/05/29 01:50:36;;;;;;;3.93;2.30;;;;;;;11.54;64.84;96100.13;5076115;28;20226;-54
2022/05/29 01:53:08;;;;;;;3.20;1.87;;;;;;;11.44;65.30;96099.47;5076581;28;20209;-57
2022/05/29 01:55:38;;;;;;;1.70;1.20;;;;;;;11.48;63.86;96098.13;5076203;28;20207;-59
2022/05/29 01:58:08;;;;;;;2.07;1.60;;;;;;;11.36;65.11;96092.31;5066695;28;20574;-56
2022/05/29 02:00:38;;;;;;;2.93;1.70;;;;;;;11.31;65.06;96096.41;5070016;28;20221;-54
2022/05/29 02:03:11;;;;;;;3.70;1.70;;;;;;;11.17;66.44;96089.94;5071018;28;20206;-54
2022/05/29 02:05:41;;;;;;;3.30;1.57;;;;;;;11.13;66.48;96079.81;5068935;28;20198;-53
2022/05/29 02:08:12;;;;;;;2.20;1.50;;;;;;;11.06;65.80;96078.81;5062478;28;20222;-54
2022/05/29 02:10:41;;;;;;;1.83;1.60;;;;;;;10.97;66.42;96081.44;5055672;28;20214;-53
2022/05/29 02:13:11;;;;;;;3.40;1.93;;;;;;;10.92;66.63;96078.41;5055874;28;20631;-54
2022/05/29 02:15:44;;;;;;;3.33;1.83;;;;;;;10.85;68.17;96066.81;5055996;28;20565;-54
2022/05/29 02:18:17;;;;;;;3.70;2.00;;;;;;;10.90;67.11;96076.94;5056316;28;20202;-55
2022/05/29 02:20:45;;;;;;;2.00;1.43;;;;;;;10.90;66.60;96069.00;5055824;28;20237;-55
2022/05/29 02:23:17;;;;;;;2.57;1.60;;;;;;;10.85;65.91;96073.91;5055615;28;20634;-54
2022/05/29 02:25:44;;;;;;;3.77;2.07;;;;;;;10.90;67.22;96075.13;5054073;28;20674;-55
2022/05/29 02:28:14;;;;;;;3.77;1.63;;;;;;;10.94;65.24;96065.88;5055619;28;20224;-54
2022/05/29 02:30:46;;;;;;;3.80;2.17;;;;;;;10.91;65.98;96065.38;5054669;28;20215;-55
2022/05/29 02:33:18;;;;;;;4.13;1.83;;;;;;;10.88;65.20;96066.50;5055716;28;20210;-55
2022/05/29 02:35:53;;;;;;;4.97;2.17;;;;;;;10.97;64.80;96064.72;5055890;28;20233;-54
2022/05/29 02:38:25;;;;;;;2.53;1.60;;;;;;;10.90;65.84;96056.59;5056128;28;20221;-53
2022/05/29 02:40:58;;;;;;;2.20;1.50;;;;;;;11.01;65.00;96058.13;5056069;28;20214;-55
2022/05/29 02:43:32;;;;;;;1.80;1.70;;;;;;;10.98;65.26;96056.63;5055614;28;20646;-55
2022/05/29 02:46:08;;;;;;;1.60;1.50;;;;;;;11.07;64.30;96056.66;5055756;28;20221;-56
2022/05/29 02:48:42;;;;;;;4.17;1.70;;;;;;;11.10;66.24;96053.69;5053185;28;20217;-56
2022/05/29 02:51:15;;;;;;;4.10;2.00;;;;;;;11.16;65.51;96048.56;5054090;28;20367;-57
2022/05/29 02:53:44;;;;;;;3.60;1.70;;;;;;;11.17;65.49;96050.22;5056082;28;20202;-56
2022/05/29 02:56:11;;;;;;;2.63;1.53;;;;;;;11.23;66.07;96046.94;5054582;28;20241;-56
2022/05/29 02:58:43;;;;;;;3.03;1.97;;;;;;;11.24;66.40;96050.41;5055698;28;20206;-56
2022/05/29 03:01:23;;;;;;;2.97;1.77;;;;;;;11.28;64.87;96049.09;5055166;28;20650;-57
2022/05/29 03:04:02;;;;;;;2.23;1.83;;;;;;;11.28;64.82;96041.16;5052846;28;20198;-53
2022/05/29 03:06:46;;;;;;;4.00;1.80;;;;;;;11.31;64.73;96035.53;5054357;28;20211;-52
2022/05/29 03:09:26;;;;;;;1.93;1.70;;;;;;;11.33;65.39;96041.53;5062952;28;20249;-56
2022/05/29 03:11:53;;;;;;;3.50;2.10;;;;;;;11.35;65.26;96042.16;5072803;28;20198;-54
2022/05/29 03:14:28;;;;;;;2.20;1.47;;;;;;;11.44;62.77;96030.63;5068841;28;20214;-53
2022/05/29 03:17:09;;;;;;;2.33;1.43;;;;;;;11.46;61.95;96033.94;5056458;28;20653;-53
2022/05/29 03:19:45;;;;;;;5.13;1.80;;;;;;;11.48;62.37;96037.22;5055187;28;20220;-54
2022/05/29 03:22:16;;;;;;;4.30;1.33;;;;;;;11.51;63.80;96044.88;5055119;28;20210;-53
2022/05/29 03:24:47;;;;;;;3.03;1.70;;;;;;;11.35;63.98;96031.59;5055082;28;20214;-55
2022/05/29 03:27:17;;;;;;;2.17;1.70;;;;;;;11.38;64.95;96041.84;5054904;28;20539;-55
2022/05/29 03:29:47;;;;;;;2.20;1.53;;;;;;;11.32;65.68;96034.56;5053723;28;20670;-53
2022/05/29 03:32:15;;;;;;;2.10;1.50;;;;;;;11.32;67.05;96031.91;5054843;28;20221;-53
2022/05/29 03:34:42;;;;;;;3.37;2.03;;;;;;;11.29;66.54;96033.06;5054666;28;20228;-53
2022/05/29 03:37:10;;;;;;;3.47;1.80;;;;;;;11.26;65.45;96045.81;5054607;28;20607;-52
2022/05/29 03:39:38;;;;;;;5.60;2.10;;;;;;;11.18;66.37;96051.06;5054613;28;20210;-55
2022/05/29 03:42:06;;;;;;;4.23;2.13;;;;;;;11.12;66.87;96043.78;5052451;28;20561;-49
2022/05/29 03:44:34;;;;;;;2.50;1.73;;;;;;;11.12;67.39;96038.50;5054433;28;20250;-48
2022/05/29 03:47:00;;;;;;;3.33;1.80;;;;;;;10.99;67.16;96042.41;5054365;28;20555;-49
2022/05/29 03:49:28;;;;;;;4.93;1.83;;;;;;;11.04;68.50;96041.09;5052609;28;20638;-49
2022/05/29 03:51:55;;;;;;;5.20;1.83;;;;;;;10.92;67.46;96038.75;5064366;28;20229;-49
2022/05/29 03:54:21;;;;;;;3.40;2.10;;;;;;;10.88;68.04;96039.22;5069222;28;20213;-49
2022/05/29 03:56:48;;;;;;;2.57;1.70;;;;;;;10.78;68.60;96041.16;5060629;28;20238;-49
2022/05/29 03:59:14;;;;;;;2.63;1.67;;;;;;;10.82;68.61;96034.56;5054313;28;20221;-49
2022/05/29 04:01:41;;;;;;;4.03;1.83;;;;;;;10.76;68.22;96040.50;5068761;28;20234;-49
2022/05/29 04:04:08;;;;;;;4.33;1.60;;;;;;;10.71;68.54;96048.91;5053989;28;20570;-48
2022/05/29 04:06:40;;;;;;;1.97;1.50;;;;;;;10.75;69.34;96046.78;5053527;28;20215;-49
2022/05/29 04:12:07;;;;;;;2.67;1.70;;;;;;;10.80;67.94;96052.44;5053455;28;20232;-49
2022/05/29 04:14:37;;;;;;;3.83;2.47;;;;;;;10.78;68.58;96047.28;5055401;28;20292;-49
2022/05/29 04:17:04;;;;;;;3.80;1.67;;;;;;;10.77;69.00;96058.03;5058133;28;20222;-49
2022/05/29 04:19:33;;;;;;;4.00;1.87;;;;;;;10.92;69.53;96046.69;5060921;28;20199;-49
2022/05/29 04:22:01;;;;;;;5.60;1.60;;;;;;;10.93;69.57;96053.63;5061421;28;20222;-49
2022/05/29 04:24:28;;;;;;;3.27;1.70;;;;;;;11.01;69.45;96055.50;5064761;28;20210;-49
2022/05/29 04:26:54;;;;;;;4.73;2.13;;;;;;;11.01;69.18;96052.00;5066328;28;20214;-48
2022/05/29 04:29:21;;;;;;;3.73;1.80;;;;;;;11.08;69.92;96045.91;5062394;28;20238;-49
2022/05/29 04:34:32;;;;;;;4.47;1.87;;;;;;;11.14;67.60;96047.09;5065413;28;20209;-48
2022/05/29 04:36:59;;;;;;;3.57;1.60;;;;;;;11.20;70.11;96049.06;5065030;28;20304;-48
2022/05/29 04:39:32;;;;;;;3.53;1.60;;;;;;;11.29;67.83;96045.47;5066091;28;20590;-49
2022/05/29 04:42:00;;;;;;;1.90;1.70;;;;;;;11.33;68.23;96049.47;5062073;28;20256;-49
2022/05/29 04:44:27;;;;;;;2.57;1.60;;;;;;;11.36;68.11;96049.13;5061135;28;20214;-49
2022/05/29 04:46:53;;;;;;;5.67;1.73;;;;;;;11.42;67.87;96051.97;5060367;28;20237;-49
2022/05/29 04:49:20;;;;;;;1.60;1.50;;;;;;;11.40;68.89;96048.66;5064452;28;20698;-48
2022/05/29 04:51:46;;;;;;;2.00;1.80;;;;;;;11.45;68.17;96056.09;5053865;28;20231;-49
2022/05/29 04:54:12;;;;;;;4.83;2.17;;;;;;;11.52;67.49;96054.44;5053618;28;20210;-48
2022/05/29 04:56:40;;;;;;;2.73;1.60;;;;;;;11.51;66.06;96050.16;5053113;28;20286;-48
2022/05/29 04:59:07;;;;;;;2.20;1.70;;;;;;;11.60;69.16;96051.81;5053584;28;20215;-49
2022/05/29 05:01:35;;;;;;;2.17;1.47;;;;;;;11.61;69.25;96064.06;5053343;28;20211;-49
2022/05/29 05:04:03;;;;;;;3.00;1.77;;;;;;;11.67;67.39;96058.13;5052896;28;20648;-49
2022/05/29 05:06:32;;;;;;;2.60;1.53;;;;;;;11.72;66.44;96055.00;5063375;28;20214;-49
2022/05/29 05:09:01;;;;;;;2.00;1.53;;;;;;;11.87;66.24;96051.53;5063424;28;20206;-48
2022/05/29 05:11:27;;;;;;;2.80;1.77;;;;;;;11.93;63.94;96048.25;5061686;28;20230;-49
2022/05/29 05:13:55;;;;;;;3.70;1.77;;;;;;;12.07;63.16;96051.22;5065214;28;20207;-49
2022/05/29 05:16:23;;;;;;;3.43;1.63;;;;;;;12.13;64.43;96053.19;5062550;28;20211;-49
2022/05/29 05:18:50;;;;;;;2.20;1.70;;;;;;;12.16;63.57;96048.38;5057143;28;20203;-50
2022/05/29 05:21:19;;;;;;;3.33;1.80;;;;;;;12.25;60.49;96054.50;5078803;28;20343;-49
2022/05/29 05:23:45;;;;;;;3.40;1.80;;;;;;;12.33;61.64;96063.25;5068778;28;20252;-48
2022/05/29 05:26:15;;;;;;;4.43;1.70;;;;;;;12.38;62.41;96058.28;5069814;28;20218;-49
2022/05/29 05:28:42;;;;;;;2.10;1.53;;;;;;;12.41;57.50;96055.31;5071365;28;20238;-48
2022/05/29 05:31:10;;;;;;;2.07;1.50;;;;;;;12.37;61.10;96055.81;5069557;28;20240;-49
2022/05/29 05:33:36;;;;;;;2.13;1.90;;;;;;;12.44;59.52;96051.47;5068813;28;20215;-49
2022/05/29 05:36:05;;;;;;;2.43;1.70;;;;;;;12.46;59.51;96054.81;5064967;28;20206;-49
2022/05/29 05:38:32;;;;;;;3.13;1.83;;;;;;;12.53;62.64;96049.66;5069914;28;20272;-48
2022/05/29 05:40:58;;;;;;;2.30;1.73;;;;;;;12.58;60.36;96053.44;5065123;28;20645;-50
2022/05/29 05:43:25;;;;;;;2.03;1.70;;;;;;;12.63;61.05;96055.59;5056748;28;20210;-49
2022/05/29 05:45:52;;;;;;;3.43;1.70;;;;;;;12.67;62.73;96052.44;5056562;28;20214;-49
2022/05/29 05:48:23;;;;;;;2.63;1.70;;;;;;;12.72;61.14;96044.78;5056486;28;20214;-49
2022/05/29 05:50:49;;;;;;;3.90;1.73;;;;;;;12.82;60.17;96050.72;5056158;28;20527;-49
2022/05/29 05:53:16;;;;;;;3.13;1.50;;;;;;;13.07;57.77;96045.34;5056276;28;20644;-49
2022/05/29 05:55:45;;;;;;;2.80;1.50;;;;;;;13.24;57.58;96041.63;5056265;28;20207;-50
2022/05/29 05:58:12;;;;;;;2.63;1.50;;;;;;;13.27;55.65;96043.94;5056477;28;20221;-49
2022/05/29 06:00:39;;;;;;;2.70;1.43;;;;;;;13.38;58.13;96043.53;5056570;28;20226;-48
2022/05/29 06:03:07;;;;;;;2.77;1.60;;;;;;;13.51;55.36;96049.09;5056303;28;20218;-50
2022/05/29 06:05:34;;;;;;;2.37;1.33;;;;;;;14.04;55.99;96048.22;5056489;28;20207;-50
2022/05/29 06:08:01;;;;;;;5.83;1.90;;;;;;;14.73;54.81;96048.94;5055621;28;20211;-49
2022/05/29 06:10:30;;;;;;;1.77;1.57;;;;;;;15.27;52.16;96046.75;5056032;28;20242;-50
2022/05/29 06:12:56;;;;;;;2.27;1.43;;;;;;;15.78;48.43;96048.41;5056138;28;20207;-49
2022/05/29 06:15:23;;;;;;;1.60;1.37;;;;;;;16.01;50.17;96045.56;5055933;28;20211;-50
2022/05/29 06:17:50;;;;;;;2.30;1.60;;;;;;;15.95;49.55;96040.97;5055755;28;20200;-49
2022/05/29 06:20:16;;;;;;;1.90;1.40;;;;;;;16.47;46.98;96039.78;5055960;28;20215;-50
2022/05/29 06:22:49;;;;;;;2.23;1.50;;;;;;;16.60;47.59;96046.09;5055972;28;20206;-48
2022/05/29 06:25:16;;;;;;;3.23;1.73;;;;;;;16.89;46.98;96045.88;5055912;28;20693;-50
2022/05/29 06:27:44;;;;;;;1.98;1.38;;;;;;;17.25;45.36;96047.50;5055576;28;20213;-49
2022/05/29 06:30:13;;;;;;;3.22;1.50;;;;;;;17.26;45.37;96049.94;5055339;28;20239;-49
2022/05/29 06:32:40;;;;;;;3.50;1.83;;;;;;;17.51;46.58;96049.44;5052561;28;20218;-50
2022/05/29 06:35:12;;;;;;;2.65;1.60;;;;;;;17.91;43.93;96045.88;5055622;28;20226;-49
2022/05/29 06:37:39;;;;;;;3.30;1.42;;;;;;;17.70;43.61;96049.53;5055610;28;20207;-49
2022/05/29 06:40:09;;;;;;;2.88;1.35;;;;;;;17.86;42.75;96048.31;5055407;28;20215;-50
2022/05/29 06:42:35;;;;;;;1.98;1.35;;;;;;;17.67;45.10;96047.28;5055483;28;20659;-49
2022/05/29 06:45:03;;;;;;;5.07;1.52;;;;;;;17.89;43.99;96046.06;5055306;28;20222;-49
2022/05/29 06:47:29;;;;;;;3.50;1.50;;;;;;;18.11;44.14;96049.41;5055541;28;20222;-51
2022/05/29 06:49:59;;;;;;;2.13;1.40;;;;;;;17.82;43.14;96047.06;5051878;28;20238;-49
2022/05/29 06:52:29;;;;;;;2.20;1.42;;;;;;;17.75;45.35;96052.41;5055401;28;20261;-49
2022/05/29 06:54:55;;;;;;;2.45;1.50;;;;;;;17.56;43.77;96057.69;5054925;28;20605;-50
2022/05/29 06:57:37;;;;;;;3.25;1.45;;;;;;;17.40;43.40;96053.50;5054749;28;20591;-49
2022/05/29 07:08:20;;;;;;;4.13;1.50;;;;;;;17.50;45.36;96061.97;5054892;28;20273;-49
2022/05/29 07:10:47;;;;;;;2.35;1.70;;;;;;;17.57;44.32;96054.81;5054773;28;20231;-49
2022/05/29 07:13:15;;;;;;;1.77;1.30;;;;;;;17.46;43.31;96052.72;5054726;28;20264;-50
2022/05/29 07:15:43;;;;;;;3.40;1.70;;;;;;;17.29;45.51;96051.38;5055089;28;20214;-50
2022/05/29 07:18:11;;;;;;;4.13;1.40;;;;;;;17.33;44.40;96055.31;5054755;28;20211;-50
2022/05/29 07:20:38;;;;;;;2.97;1.45;;;;;;;17.50;46.32;96055.81;5055170;28;20218;-50
2022/05/29 07:23:07;;;;;;;2.95;1.50;;;;;;;17.42;44.83;96062.16;5054215;28;20647;-50
2022/05/29 07:25:34;;;;;;;2.88;1.50;;;;;;;17.48;45.37;96060.53;5054184;28;20239;-49
2022/05/29 07:28:00;;;;;;;2.45;1.80;;;;;;;17.21;45.03;96056.91;5054674;28;20203;-49
2022/05/29 07:30:29;;;;;;;2.65;1.60;;;;;;;17.39;44.70;96063.34;5054410;28;20534;-50
2022/05/29 07:32:55;;;;;;;2.38;1.50;;;;;;;16.97;47.19;96058.22;5054684;28;20207;-49
2022/05/29 07:35:22;;;;;;;2.40;1.42;;;;;;;17.11;46.17;96064.47;5050574;28;20207;-48
2022/05/29 07:37:49;;;;;;;1.70;1.13;;;;;;;17.26;47.25;96071.31;5054609;28;20207;-50
2022/05/29 07:40:15;;;;;;;1.80;1.20;;;;;;;17.54;46.79;96063.22;5054031;28;20545;-50
2022/05/29 07:45:28;;;;;;;2.10;1.65;;;;;;;17.54;43.73;96065.88;5058537;28;20329;-52
2022/05/29 07:47:56;;;;;;;2.40;1.70;;;;;;;17.41;44.19;96060.50;5071312;28;20210;-53
2022/05/29 07:50:23;;;;;;;2.22;1.50;;;;;;;17.12;45.81;96063.44;5067769;28;20214;-49
2022/05/29 07:52:51;;;;;;;2.45;1.55;;;;;;;17.52;46.52;96062.59;5059132;28;20533;-50
2022/05/29 07:55:18;;;;;;;2.20;1.45;;;;;;;17.26;46.29;96059.81;5053681;28;20722;-51
2022/05/29 07:57:46;;;;;;;3.15;1.77;;;;;;;17.42;44.96;96063.00;5053181;28;20615;-49
2022/05/29 08:00:15;;;;;;;1.40;1.30;;;;;;;17.28;47.15;96057.78;5053069;28;20207;-49
2022/05/29 08:02:43;;;;;;;2.55;1.40;;;;;;;17.15;45.86;96055.84;5053634;28;20199;-50
2022/05/29 08:05:12;;;;;;;1.63;1.35;;;;;;;17.21;47.07;96060.44;5052814;28;20207;-50
2022/05/29 08:07:38;;;;;;;1.60;1.50;;;;;;;17.62;46.94;96055.06;5053155;28;20206;-49
2022/05/29 08:10:07;;;;;;;2.38;1.58;;;;;;;18.14;44.85;96051.66;5053738;28;20215;-52
2022/05/29 08:12:34;;;;;;;2.83;1.55;;;;;;;18.69;43.51;96058.50;5053785;28;20238;-51
2022/05/29 08:15:01;;;;;;;2.60;1.70;;;;;;;19.19;42.68;96056.16;5053590;28;20577;-50
2022/05/29 08:17:27;;;;;;;2.95;1.38;;;;;;;19.52;43.31;96061.44;5053618;28;20222;-50
2022/05/29 08:19:55;;;;;;;2.58;1.77;;;;;;;19.80;42.81;96060.03;5053845;28;20210;-50
2022/05/29 08:22:22;;;;;;;3.25;1.75;;;;;;;19.82;41.48;96052.63;5053153;28;20256;-52
2022/05/29 08:30:41;;;;;;;2.65;1.33;;;;;;;20.79;41.32;96048.63;5052323;28;20346;-52
2022/05/29 08:33:10;;;;;;;2.05;1.55;;;;;;;20.83;40.15;96039.88;5052657;28;20241;-51
2022/05/29 08:35:38;;;;;;;3.38;1.33;;;;;;;20.73;40.62;96042.25;5053646;28;20219;-51
2022/05/29 08:38:08;;;;;;;2.95;1.48;;;;;;;20.90;39.84;96047.09;5052840;28;20214;-50
2022/05/29 08:40:41;;;;;;;1.77;1.40;;;;;;;21.18;39.37;96034.84;5053314;28;20218;-50
2022/05/29 08:43:10;;;;;;;4.00;1.98;;;;;;;21.27;37.09;96046.09;5053271;28;20207;-51
2022/05/29 08:45:39;;;;;;;2.95;1.35;;;;;;;21.19;37.19;96038.31;5053738;28;20207;-51
2022/05/29 08:48:06;;;;;;;3.65;1.75;;;;;;;20.81;37.82;96041.16;5051884;28;20222;-49
2022/05/29 08:50:42;;;;;;;4.55;2.78;;;;;;;21.04;38.87;96032.47;5053884;28;20214;-51
2022/05/29 08:53:19;;;;;;;3.33;1.67;;;;;;;20.77;38.80;96029.22;5052578;28;20211;-50
2022/05/29 08:55:50;;;;;;;4.35;1.30;;;;;;;20.91;36.92;96029.91;5052299;28;20230;-50
2022/05/29 08:58:25;;;;;;;2.90;1.55;;;;;;;21.05;36.76;96037.59;5053176;28;20623;-50
2022/05/29 09:01:00;;;;;;;3.92;1.42;;;;;;;21.50;37.00;96027.41;5051242;28;20218;-51
2022/05/29 09:03:36;;;;;;;2.85;1.50;;;;;;;21.48;38.71;96025.97;5053337;28;20203;-51
2022/05/29 09:06:07;;;;;;;2.80;1.50;;;;;;;21.27;38.59;96020.03;5052723;28;20210;-51
2022/05/29 09:08:38;;;;;;;2.67;1.90;;;;;;;21.37;36.84;96019.50;5053163;28;20658;-51
2022/05/29 09:11:08;;;;;;;2.90;1.42;;;;;;;21.13;37.03;96013.16;5049784;28;20211;-53
2022/05/29 09:13:38;;;;;;;2.25;1.17;;;;;;;21.27;37.87;96019.19;5052777;28;20222;-50
2022/05/29 09:16:10;;;;;;;4.13;1.60;;;;;;;21.44;36.87;96020.22;5050855;28;20223;-51
2022/05/29 09:18:39;;;;;;;2.85;1.45;;;;;;;21.55;35.66;96016.78;5053032;28;20199;-50
2022/05/29 09:21:12;;;;;;;2.65;1.50;;;;;;;21.47;35.13;96019.78;5052548;28;20543;-49
2022/05/29 09:23:44;;;;;;;1.52;1.02;;;;;;;22.02;37.08;96011.63;5052827;28;20211;-51
2022/05/29 09:26:15;;;;;;;2.55;1.30;;;;;;;21.94;37.07;96012.75;5051907;28;20203;-50
2022/05/29 09:28:42;;;;;;;2.95;1.60;;;;;;;21.48;35.39;96010.66;5052167;28;20238;-49
2022/05/29 09:31:11;;;;;;;2.25;1.52;;;;;;;21.41;37.63;96009.94;5052704;28;20226;-49
2022/05/29 09:33:39;;;;;;;2.67;1.58;;;;;;;20.98;34.76;96017.22;5051351;28;20218;-50
2022/05/29 09:36:16;;;;;;;2.60;1.42;;;;;;;20.46;35.86;96014.00;5053098;28;20200;-50
2022/05/29 09:38:51;;;;;;;3.50;1.77;;;;;;;20.18;36.11;96003.66;5052700;28;20795;-49
2022/05/29 09:41:20;;;;;;;3.15;1.75;;;;;;;20.48;36.10;96008.38;5052656;28;20678;-51
2022/05/29 09:44:12;;;;;;;3.30;1.40;;;;;;;20.54;38.32;96008.34;5052579;28;20211;-50
2022/05/29 09:46:41;;;;;;;4.00;1.67;;;;;;;20.30;39.09;95999.25;5039239;28;20218;-51
2022/05/29 09:52:06;;;;;;;2.78;1.38;;;;;;;20.05;38.15;95997.56;5052144;28;20678;-49
2022/05/29 09:54:37;;;;;;;2.85;1.40;;;;;;;19.63;40.28;95993.69;5049698;28;20214;-50
2022/05/29 09:57:09;;;;;;;3.72;1.70;;;;;;;19.42;39.05;95989.47;5053026;28;20200;-51
2022/05/29 09:59:40;;;;;;;3.50;1.52;;;;;;;19.10;40.09;95988.53;5053634;28;20207;-50
2022/05/29 10:02:08;;;;;;;3.08;1.50;;;;;;;19.45;39.88;95989.03;5055241;28;20188;-50
2022/05/29 10:04:37;;;;;;;2.33;1.70;;;;;;;19.75;41.12;95986.63;5055955;28;20269;-50
2022/05/29 10:07:14;;;;;;;5.95;1.80;;;;;;;19.21;38.60;95989.75;5060660;28;20294;-48
2022/05/29 10:09:56;;;;;;;2.65;1.60;;;;;;;19.89;37.58;95988.16;5064028;28;20211;-49
2022/05/29 10:12:34;;;;;;;2.42;1.42;;;;;;;20.40;36.19;95988.03;5058260;28;20207;-50
2022/05/29 10:15:01;;;;;;;6.13;1.58;;;;;;;21.34;36.35;95987.66;5056254;28;20199;-48
2022/05/29 10:17:35;;;;;;;1.77;1.40;;;;;;;21.66;34.53;95986.41;5057885;28;20301;-49
2022/05/29 10:20:02;;;;;;;1.40;1.30;;;;;;;21.92;35.88;95976.38;5057569;28;20211;-50
2022/05/29 10:22:34;;;;;;;2.30;1.60;;;;;;;21.17;34.35;95974.03;5058650;28;20206;-49
2022/05/29 10:25:00;;;;;;;2.80;1.45;;;;;;;21.38;35.96;95971.91;5056268;28;20203;-49
2022/05/29 10:27:30;;;;;;;2.92;1.70;;;;;;;21.08;34.11;95977.22;5055793;28;20211;-49
2022/05/29 10:29:58;;;;;;;3.70;1.45;;;;;;;20.85;34.53;95977.88;5054848;28;20241;-50
2022/05/29 10:32:28;;;;;;;3.10;1.10;;;;;;;20.84;34.08;95977.03;5055368;28;20226;-49
2022/05/29 10:35:11;;;;;;;1.73;1.20;;;;;;;20.54;32.33;95981.50;5055517;28;20527;-49
2022/05/29 10:37:41;;;;;;;1.80;1.42;;;;;;;20.27;32.62;95985.41;5055360;28;20656;-50
2022/05/29 10:40:18;;;;;;;1.85;1.25;;;;;;;20.30;31.36;95980.44;5055812;28;20218;-49
2022/05/29 10:42:46;;;;;;;1.40;0.98;;;;;;;19.83;31.93;95973.78;5054968;28;20207;-49
2022/05/29 10:45:18;;;;;;;2.65;1.20;;;;;;;20.40;33.94;95965.72;5055326;28;20203;-49
2022/05/29 10:47:57;;;;;;;3.08;1.48;;;;;;;20.32;36.05;95973.00;5053729;28;20227;-49
2022/05/29 10:50:29;;;;;;;1.35;1.10;;;;;;;20.31;32.57;95965.16;5048262;28;20238;-51
2022/05/29 10:53:06;;;;;;;2.08;1.48;;;;;;;20.00;36.14;95970.56;5054836;28;20211;-50
2022/05/29 10:55:41;;;;;;;1.73;1.00;;;;;;;19.85;35.42;95966.31;5054532;28;20280;-49
2022/05/29 10:58:30;;;;;;;2.10;1.17;;;;;;;19.57;35.87;95967.75;5055106;28;20206;-51
2022/05/29 11:03:17;;;;;;;2.25;1.48;;;;;;;19.21;36.20;95966.44;5053997;28;20282;-50
2022/05/29 11:04:01;;;;;;;1.70;1.23;;;;;;;19.70;37.59;95964.97;5053993;28;20300;-50
2022/05/29 11:06:54;;;;;;;2.05;0.95;;;;;;;19.63;37.35;95956.97;5054342;28;20910;-50
2022/05/29 11:09:39;;;;;;;2.95;1.65;;;;;;;19.73;38.61;95965.34;5055209;28;20218;-51
2022/05/29 11:12:11;;;;;;;1.88;1.60;;;;;;;19.13;38.32;95971.22;5052501;28;20258;-50
2022/05/29 11:14:48;;;;;;;2.70;1.95;;;;;;;18.79;39.80;95977.72;5055230;28;20632;-54
2022/05/29 11:17:21;;;;;;;2.00;1.30;;;;;;;18.62;41.58;95974.69;5053953;28;20206;-50
2022/05/29 11:19:59;;;;;;;2.38;1.25;;;;;;;18.49;40.61;95979.22;5053838;28;20380;-52
2022/05/29 11:22:30;;;;;;;2.10;1.20;;;;;;;17.87;42.79;95980.44;5054169;28;20547;-51
2022/05/29 11:25:32;;;;;;;1.42;1.02;;;;;;;17.77;42.65;95983.53;5054904;28;20207;-50
2022/05/29 11:28:12;;;;;;;1.67;1.33;;;;;;;17.46;46.32;95993.91;5030170;28;20199;-51
2022/05/29 11:30:52;;;;;;;1.48;0.95;;;;;;;17.27;49.27;96005.34;5054916;28;20207;-51
2022/05/29 11:33:29;;;;;;;3.22;1.40;;;;;;;17.27;50.05;96000.84;5055135;28;20223;-50
2022/05/29 11:36:05;;;;;;;1.67;1.20;;;;;;;17.13;50.05;96009.00;5055191;28;20529;-51
2022/05/29 11:38:57;;;;;;;1.65;1.55;;;;;;;17.21;49.11;96003.47;5054594;28;20203;-50
2022/05/29 11:41:31;;;;;;;1.80;1.50;;;;;;;17.39;48.30;95993.88;5053821;28;20207;-50
2022/05/29 11:44:00;;;;;;;1.85;1.15;;;;;;;17.52;48.57;95997.63;5054004;28;20207;-50
2022/05/29 11:52:14;;;;;;;2.78;2.03;;;;;;;18.86;42.53;95979.34;5054085;28;20720;-53
2022/05/29 11:54:44;;;;;;;2.30;1.35;;;;;;;18.94;42.84;95978.31;5049046;28;20203;-54
2022/05/29 11:57:14;;;;;;;2.08;1.75;;;;;;;19.21;43.45;95982.53;5052311;28;20234;-55
2022/05/29 11:59:48;;;;;;;4.47;2.00;;;;;;;19.36;42.49;95980.41;5054443;28;20206;-57
2022/05/29 12:02:25;;;;;;;3.10;1.75;;;;;;;19.39;41.37;95977.28;5052770;28;20226;-56
2022/05/29 12:04:56;;;;;;;3.30;1.48;;;;;;;20.00;42.95;95983.97;5052443;28;20211;-54
2022/05/29 12:07:25;;;;;;;2.70;1.40;;;;;;;20.41;39.27;95981.59;5053441;28;20224;-57
2022/05/29 12:09:55;;;;;;;3.25;1.20;;;;;;;20.09;38.19;95982.66;5053649;28;20199;-57
2022/05/29 12:12:32;;;;;;;2.20;1.10;;;;;;;19.62;38.06;95984.03;5053377;28;20222;-57
2022/05/29 12:15:01;;;;;;;3.13;1.90;;;;;;;19.51;39.58;95990.88;5053317;28;20202;-55
2022/05/29 12:17:31;;;;;;;1.40;1.25;;;;;;;19.46;40.39;95990.69;5053455;28;20203;-55
2022/05/29 12:20:05;;;;;;;1.88;1.45;;;;;;;19.29;41.32;95974.25;5053260;28;20636;-55
2022/05/29 12:22:47;;;;;;;4.50;1.30;;;;;;;19.65;39.21;95981.72;5053539;28;20276;-54